sensor_id;sensor_type;location;lat;lon;timestamp;P1;durP1;ratioP1;P2;durP2;ratioP2
12429;SDS011;6279;42.192;24.326;2022-12-10T00:01:39;39.73;;;19.70;;
12429;SDS011;6279;42.192;24.326;2022-12-10T00:04:06;35.03;;;19.50;;
12429;SDS011;6279;42.192;24.326;2022-12-10T00:06:33;34.70;;;19.10;;
12429;SDS011;6279;42.192;24.326;2022-12-10T00:09:00;37.53;;;19.57;;
12429;SDS011;6279;42.192;24.326;2022-12-10T00:11:27;35.30;;;19.33;;
12429;SDS011;6279;42.192;24.326;2022-12-10T00:13:53;35.90;;;19.30;;
12429;SDS011;6279;42.192;24.326;2022-12-10T00:16:19;41.73;;;20.67;;
12429;SDS011;6279;42.192;24.326;2022-12-10T00:18:47;36.27;;;19.30;;
12429;SDS011;6279;42.192;24.326;2022-12-10T00:21:20;38.43;;;19.53;;
12429;SDS011;6279;42.192;24.326;2022-12-10T00:23:47;38.10;;;20.37;;
12429;SDS011;6279;42.192;24.326;2022-12-10T00:26:17;36.63;;;20.67;;
12429;SDS011;6279;42.192;24.326;2022-12-10T00:28:45;45.10;;;22.03;;
12429;SDS011;6279;42.192;24.326;2022-12-10T00:31:12;40.63;;;22.27;;
12429;SDS011;6279;42.192;24.326;2022-12-10T00:33:40;44.50;;;21.77;;
12429;SDS011;6279;42.192;24.326;2022-12-10T00:36:08;41.03;;;22.50;;
12429;SDS011;6279;42.192;24.326;2022-12-10T00:38:53;40.90;;;22.13;;
12429;SDS011;6279;42.192;24.326;2022-12-10T00:41:19;42.37;;;20.13;;
12429;SDS011;6279;42.192;24.326;2022-12-10T00:43:46;39.87;;;20.73;;
12429;SDS011;6279;42.192;24.326;2022-12-10T00:46:12;40.47;;;21.43;;
12429;SDS011;6279;42.192;24.326;2022-12-10T00:48:38;43.03;;;22.33;;
12429;SDS011;6279;42.192;24.326;2022-12-10T00:51:14;41.03;;;21.53;;
12429;SDS011;6279;42.192;24.326;2022-12-10T00:53:42;42.33;;;20.33;;
12429;SDS011;6279;42.192;24.326;2022-12-10T00:56:12;40.00;;;20.80;;
12429;SDS011;6279;42.192;24.326;2022-12-10T00:58:39;43.30;;;20.87;;
12429;SDS011;6279;42.192;24.326;2022-12-10T01:01:18;40.60;;;21.27;;
12429;SDS011;6279;42.192;24.326;2022-12-10T01:03:48;43.47;;;22.93;;
12429;SDS011;6279;42.192;24.326;2022-12-10T01:06:18;45.60;;;21.33;;
12429;SDS011;6279;42.192;24.326;2022-12-10T01:08:47;43.83;;;22.03;;
12429;SDS011;6279;42.192;24.326;2022-12-10T01:11:15;52.67;;;22.53;;
12429;SDS011;6279;42.192;24.326;2022-12-10T01:13:42;45.50;;;21.57;;
12429;SDS011;6279;42.192;24.326;2022-12-10T01:16:09;41.90;;;20.23;;
12429;SDS011;6279;42.192;24.326;2022-12-10T01:18:35;45.10;;;21.03;;
12429;SDS011;6279;42.192;24.326;2022-12-10T01:21:06;46.27;;;21.33;;
12429;SDS011;6279;42.192;24.326;2022-12-10T01:23:37;45.63;;;20.57;;
12429;SDS011;6279;42.192;24.326;2022-12-10T01:26:06;44.93;;;21.50;;
12429;SDS011;6279;42.192;24.326;2022-12-10T01:28:34;44.57;;;21.97;;
12429;SDS011;6279;42.192;24.326;2022-12-10T01:31:01;44.80;;;21.00;;
12429;SDS011;6279;42.192;24.326;2022-12-10T01:33:29;43.50;;;21.37;;
12429;SDS011;6279;42.192;24.326;2022-12-10T01:35:55;43.03;;;19.17;;
12429;SDS011;6279;42.192;24.326;2022-12-10T01:38:21;40.03;;;20.03;;
12429;SDS011;6279;42.192;24.326;2022-12-10T01:40:47;39.40;;;18.93;;
12429;SDS011;6279;42.192;24.326;2022-12-10T01:43:13;37.83;;;18.37;;
12429;SDS011;6279;42.192;24.326;2022-12-10T01:45:39;38.30;;;18.30;;
12429;SDS011;6279;42.192;24.326;2022-12-10T01:48:04;31.73;;;18.43;;
12429;SDS011;6279;42.192;24.326;2022-12-10T01:50:30;37.57;;;17.93;;
12429;SDS011;6279;42.192;24.326;2022-12-10T01:52:55;35.87;;;17.90;;
12429;SDS011;6279;42.192;24.326;2022-12-10T01:58:07;38.77;;;17.80;;
12429;SDS011;6279;42.192;24.326;2022-12-10T02:00:34;35.37;;;16.57;;
12429;SDS011;6279;42.192;24.326;2022-12-10T02:03:18;28.43;;;16.47;;
12429;SDS011;6279;42.192;24.326;2022-12-10T02:05:51;30.80;;;15.87;;
12429;SDS011;6279;42.192;24.326;2022-12-10T02:13:40;29.40;;;16.40;;
12429;SDS011;6279;42.192;24.326;2022-12-10T02:16:14;26.57;;;15.47;;
12429;SDS011;6279;42.192;24.326;2022-12-10T02:18:45;23.40;;;14.33;;
12429;SDS011;6279;42.192;24.326;2022-12-10T02:21:16;24.37;;;14.03;;
12429;SDS011;6279;42.192;24.326;2022-12-10T02:24:05;25.40;;;14.63;;
12429;SDS011;6279;42.192;24.326;2022-12-10T02:26:48;26.80;;;14.30;;
12429;SDS011;6279;42.192;24.326;2022-12-10T02:29:21;21.13;;;12.73;;
12429;SDS011;6279;42.192;24.326;2022-12-10T02:31:57;24.97;;;13.50;;
12429;SDS011;6279;42.192;24.326;2022-12-10T02:34:28;21.43;;;13.17;;
12429;SDS011;6279;42.192;24.326;2022-12-10T02:36:59;22.40;;;13.23;;
12429;SDS011;6279;42.192;24.326;2022-12-10T02:39:29;28.00;;;14.10;;
12429;SDS011;6279;42.192;24.326;2022-12-10T02:41:56;23.60;;;13.50;;
12429;SDS011;6279;42.192;24.326;2022-12-10T02:44:24;27.10;;;13.90;;
12429;SDS011;6279;42.192;24.326;2022-12-10T02:46:54;20.40;;;13.57;;
12429;SDS011;6279;42.192;24.326;2022-12-10T02:49:21;24.17;;;13.57;;
12429;SDS011;6279;42.192;24.326;2022-12-10T02:51:47;19.33;;;12.87;;
12429;SDS011;6279;42.192;24.326;2022-12-10T02:57:00;20.47;;;13.17;;
12429;SDS011;6279;42.192;24.326;2022-12-10T03:02:24;22.53;;;13.03;;
12429;SDS011;6279;42.192;24.326;2022-12-10T03:05:17;19.10;;;12.80;;
12429;SDS011;6279;42.192;24.326;2022-12-10T03:07:49;18.47;;;12.33;;
12429;SDS011;6279;42.192;24.326;2022-12-10T03:10:28;21.07;;;12.83;;
12429;SDS011;6279;42.192;24.326;2022-12-10T03:12:59;20.53;;;13.10;;
12429;SDS011;6279;42.192;24.326;2022-12-10T03:15:27;19.63;;;13.63;;
12429;SDS011;6279;42.192;24.326;2022-12-10T03:17:58;19.50;;;12.27;;
12429;SDS011;6279;42.192;24.326;2022-12-10T03:20:26;21.20;;;12.77;;
12429;SDS011;6279;42.192;24.326;2022-12-10T03:22:55;23.53;;;13.67;;
12429;SDS011;6279;42.192;24.326;2022-12-10T03:25:22;21.07;;;13.67;;
12429;SDS011;6279;42.192;24.326;2022-12-10T03:27:50;21.27;;;12.70;;
12429;SDS011;6279;42.192;24.326;2022-12-10T03:30:18;19.97;;;13.20;;
12429;SDS011;6279;42.192;24.326;2022-12-10T03:32:44;24.57;;;12.93;;
12429;SDS011;6279;42.192;24.326;2022-12-10T03:35:10;22.87;;;12.90;;
12429;SDS011;6279;42.192;24.326;2022-12-10T03:37:37;23.30;;;13.70;;
12429;SDS011;6279;42.192;24.326;2022-12-10T03:40:04;23.77;;;13.07;;
12429;SDS011;6279;42.192;24.326;2022-12-10T03:42:31;20.60;;;13.20;;
12429;SDS011;6279;42.192;24.326;2022-12-10T03:44:56;20.47;;;13.53;;
12429;SDS011;6279;42.192;24.326;2022-12-10T03:47:22;20.47;;;13.23;;
12429;SDS011;6279;42.192;24.326;2022-12-10T03:49:48;23.37;;;13.20;;
12429;SDS011;6279;42.192;24.326;2022-12-10T03:52:14;22.33;;;13.60;;
12429;SDS011;6279;42.192;24.326;2022-12-10T03:54:39;23.67;;;14.13;;
12429;SDS011;6279;42.192;24.326;2022-12-10T03:57:05;23.63;;;14.80;;
12429;SDS011;6279;42.192;24.326;2022-12-10T03:59:30;20.50;;;13.40;;
12429;SDS011;6279;42.192;24.326;2022-12-10T04:01:56;22.17;;;13.40;;
12429;SDS011;6279;42.192;24.326;2022-12-10T04:04:21;24.43;;;13.07;;
12429;SDS011;6279;42.192;24.326;2022-12-10T04:06:47;25.60;;;13.43;;
12429;SDS011;6279;42.192;24.326;2022-12-10T04:09:13;24.27;;;12.40;;
12429;SDS011;6279;42.192;24.326;2022-12-10T04:11:40;21.23;;;13.30;;
12429;SDS011;6279;42.192;24.326;2022-12-10T04:14:05;24.80;;;13.77;;
12429;SDS011;6279;42.192;24.326;2022-12-10T04:16:49;24.03;;;14.67;;
12429;SDS011;6279;42.192;24.326;2022-12-10T04:19:15;24.93;;;15.03;;
12429;SDS011;6279;42.192;24.326;2022-12-10T04:21:42;24.57;;;15.20;;
12429;SDS011;6279;42.192;24.326;2022-12-10T04:24:28;22.47;;;13.50;;
12429;SDS011;6279;42.192;24.326;2022-12-10T04:27:23;25.90;;;14.73;;
12429;SDS011;6279;42.192;24.326;2022-12-10T04:29:51;25.17;;;14.73;;
12429;SDS011;6279;42.192;24.326;2022-12-10T04:32:16;22.93;;;13.50;;
12429;SDS011;6279;42.192;24.326;2022-12-10T04:34:42;21.03;;;13.90;;
12429;SDS011;6279;42.192;24.326;2022-12-10T04:37:08;21.93;;;13.73;;
12429;SDS011;6279;42.192;24.326;2022-12-10T04:39:36;21.93;;;14.40;;
12429;SDS011;6279;42.192;24.326;2022-12-10T04:42:02;26.57;;;14.40;;
12429;SDS011;6279;42.192;24.326;2022-12-10T04:44:27;23.87;;;14.50;;
12429;SDS011;6279;42.192;24.326;2022-12-10T04:46:52;23.17;;;15.23;;
12429;SDS011;6279;42.192;24.326;2022-12-10T04:49:18;24.47;;;14.87;;
12429;SDS011;6279;42.192;24.326;2022-12-10T04:51:43;23.37;;;14.27;;
12429;SDS011;6279;42.192;24.326;2022-12-10T04:54:09;23.13;;;15.03;;
12429;SDS011;6279;42.192;24.326;2022-12-10T04:56:35;24.53;;;15.70;;
12429;SDS011;6279;42.192;24.326;2022-12-10T04:59:01;24.13;;;15.40;;
12429;SDS011;6279;42.192;24.326;2022-12-10T05:01:27;22.70;;;14.33;;
12429;SDS011;6279;42.192;24.326;2022-12-10T05:03:53;24.50;;;15.13;;
12429;SDS011;6279;42.192;24.326;2022-12-10T05:06:19;28.93;;;16.43;;
12429;SDS011;6279;42.192;24.326;2022-12-10T05:08:45;22.23;;;14.03;;
12429;SDS011;6279;42.192;24.326;2022-12-10T05:11:15;21.83;;;14.37;;
12429;SDS011;6279;42.192;24.326;2022-12-10T05:13:42;23.37;;;13.90;;
12429;SDS011;6279;42.192;24.326;2022-12-10T05:16:09;20.87;;;14.37;;
12429;SDS011;6279;42.192;24.326;2022-12-10T05:18:37;28.70;;;18.83;;
12429;SDS011;6279;42.192;24.326;2022-12-10T05:21:04;26.73;;;16.10;;
12429;SDS011;6279;42.192;24.326;2022-12-10T05:23:32;26.27;;;16.30;;
12429;SDS011;6279;42.192;24.326;2022-12-10T05:28:32;28.30;;;16.33;;
12429;SDS011;6279;42.192;24.326;2022-12-10T05:30:59;21.87;;;14.57;;
12429;SDS011;6279;42.192;24.326;2022-12-10T05:33:25;28.93;;;16.67;;
12429;SDS011;6279;42.192;24.326;2022-12-10T05:35:52;27.70;;;17.90;;
12429;SDS011;6279;42.192;24.326;2022-12-10T05:38:25;32.00;;;19.50;;
12429;SDS011;6279;42.192;24.326;2022-12-10T05:40:51;32.60;;;18.87;;
12429;SDS011;6279;42.192;24.326;2022-12-10T05:43:17;31.67;;;17.97;;
12429;SDS011;6279;42.192;24.326;2022-12-10T05:45:42;35.80;;;19.07;;
12429;SDS011;6279;42.192;24.326;2022-12-10T05:48:11;35.37;;;19.73;;
12429;SDS011;6279;42.192;24.326;2022-12-10T05:50:37;32.40;;;18.00;;
12429;SDS011;6279;42.192;24.326;2022-12-10T05:53:02;33.40;;;17.63;;
12429;SDS011;6279;42.192;24.326;2022-12-10T05:55:28;34.57;;;18.83;;
12429;SDS011;6279;42.192;24.326;2022-12-10T05:57:54;31.40;;;19.43;;
12429;SDS011;6279;42.192;24.326;2022-12-10T06:00:20;40.37;;;24.03;;
12429;SDS011;6279;42.192;24.326;2022-12-10T06:02:48;64.10;;;33.30;;
12429;SDS011;6279;42.192;24.326;2022-12-10T06:05:17;51.70;;;27.67;;
12429;SDS011;6279;42.192;24.326;2022-12-10T06:07:42;38.73;;;23.27;;
12429;SDS011;6279;42.192;24.326;2022-12-10T06:10:08;40.57;;;21.17;;
12429;SDS011;6279;42.192;24.326;2022-12-10T06:12:34;33.83;;;19.40;;
12429;SDS011;6279;42.192;24.326;2022-12-10T06:14:59;33.17;;;19.17;;
12429;SDS011;6279;42.192;24.326;2022-12-10T06:17:24;34.37;;;21.07;;
12429;SDS011;6279;42.192;24.326;2022-12-10T06:19:50;36.30;;;20.83;;
12429;SDS011;6279;42.192;24.326;2022-12-10T06:22:15;34.17;;;20.63;;
12429;SDS011;6279;42.192;24.326;2022-12-10T06:24:41;31.20;;;19.73;;
12429;SDS011;6279;42.192;24.326;2022-12-10T06:27:06;30.23;;;19.07;;
12429;SDS011;6279;42.192;24.326;2022-12-10T06:29:32;30.23;;;20.33;;
12429;SDS011;6279;42.192;24.326;2022-12-10T06:32:06;26.00;;;17.13;;
12429;SDS011;6279;42.192;24.326;2022-12-10T06:34:32;25.37;;;15.73;;
12429;SDS011;6279;42.192;24.326;2022-12-10T06:36:58;23.23;;;15.80;;
12429;SDS011;6279;42.192;24.326;2022-12-10T06:39:23;23.07;;;15.80;;
12429;SDS011;6279;42.192;24.326;2022-12-10T06:41:48;23.00;;;15.80;;
12429;SDS011;6279;42.192;24.326;2022-12-10T06:44:14;27.70;;;20.37;;
12429;SDS011;6279;42.192;24.326;2022-12-10T06:46:42;25.87;;;19.17;;
12429;SDS011;6279;42.192;24.326;2022-12-10T06:49:13;28.23;;;17.90;;
12429;SDS011;6279;42.192;24.326;2022-12-10T06:51:39;28.37;;;19.77;;
12429;SDS011;6279;42.192;24.326;2022-12-10T06:54:04;29.07;;;17.27;;
12429;SDS011;6279;42.192;24.326;2022-12-10T06:56:30;25.70;;;17.13;;
12429;SDS011;6279;42.192;24.326;2022-12-10T06:58:56;25.70;;;18.23;;
12429;SDS011;6279;42.192;24.326;2022-12-10T07:01:22;27.03;;;17.93;;
12429;SDS011;6279;42.192;24.326;2022-12-10T07:03:52;28.90;;;18.70;;
12429;SDS011;6279;42.192;24.326;2022-12-10T07:06:20;26.73;;;18.50;;
12429;SDS011;6279;42.192;24.326;2022-12-10T07:08:46;24.57;;;17.03;;
12429;SDS011;6279;42.192;24.326;2022-12-10T07:11:13;22.77;;;14.93;;
12429;SDS011;6279;42.192;24.326;2022-12-10T07:13:39;20.00;;;13.77;;
12429;SDS011;6279;42.192;24.326;2022-12-10T07:16:15;18.17;;;13.50;;
12429;SDS011;6279;42.192;24.326;2022-12-10T07:18:45;27.43;;;17.47;;
12429;SDS011;6279;42.192;24.326;2022-12-10T07:21:16;30.27;;;19.20;;
12429;SDS011;6279;42.192;24.326;2022-12-10T07:23:46;28.33;;;18.00;;
12429;SDS011;6279;42.192;24.326;2022-12-10T07:26:12;27.67;;;19.00;;
12429;SDS011;6279;42.192;24.326;2022-12-10T07:28:38;22.43;;;15.87;;
12429;SDS011;6279;42.192;24.326;2022-12-10T07:31:04;25.97;;;19.97;;
12429;SDS011;6279;42.192;24.326;2022-12-10T07:33:31;22.53;;;15.17;;
12429;SDS011;6279;42.192;24.326;2022-12-10T07:35:57;19.70;;;14.63;;
12429;SDS011;6279;42.192;24.326;2022-12-10T07:38:25;17.53;;;13.13;;
12429;SDS011;6279;42.192;24.326;2022-12-10T07:40:51;14.57;;;11.53;;
12429;SDS011;6279;42.192;24.326;2022-12-10T07:43:16;17.23;;;11.17;;
12429;SDS011;6279;42.192;24.326;2022-12-10T07:45:43;18.33;;;10.90;;
12429;SDS011;6279;42.192;24.326;2022-12-10T07:48:09;15.33;;;11.70;;
12429;SDS011;6279;42.192;24.326;2022-12-10T07:50:34;16.43;;;11.80;;
12429;SDS011;6279;42.192;24.326;2022-12-10T07:53:00;17.87;;;10.50;;
12429;SDS011;6279;42.192;24.326;2022-12-10T07:55:25;16.13;;;10.60;;
12429;SDS011;6279;42.192;24.326;2022-12-10T07:57:51;13.93;;;9.47;;
12429;SDS011;6279;42.192;24.326;2022-12-10T08:00:16;19.10;;;12.07;;
12429;SDS011;6279;42.192;24.326;2022-12-10T08:02:42;14.60;;;11.43;;
12429;SDS011;6279;42.192;24.326;2022-12-10T08:05:07;20.53;;;13.87;;
12429;SDS011;6279;42.192;24.326;2022-12-10T08:07:33;19.80;;;13.97;;
12429;SDS011;6279;42.192;24.326;2022-12-10T08:09:59;20.77;;;14.83;;
12429;SDS011;6279;42.192;24.326;2022-12-10T08:12:24;22.47;;;15.00;;
12429;SDS011;6279;42.192;24.326;2022-12-10T08:14:50;18.80;;;12.97;;
12429;SDS011;6279;42.192;24.326;2022-12-10T08:17:15;19.50;;;13.50;;
12429;SDS011;6279;42.192;24.326;2022-12-10T08:19:40;19.70;;;13.87;;
12429;SDS011;6279;42.192;24.326;2022-12-10T08:22:06;18.97;;;13.27;;
12429;SDS011;6279;42.192;24.326;2022-12-10T08:24:31;18.93;;;12.63;;
12429;SDS011;6279;42.192;24.326;2022-12-10T08:26:57;16.17;;;12.10;;
12429;SDS011;6279;42.192;24.326;2022-12-10T08:29:22;24.30;;;13.63;;
12429;SDS011;6279;42.192;24.326;2022-12-10T08:31:48;20.07;;;14.87;;
12429;SDS011;6279;42.192;24.326;2022-12-10T08:34:14;23.37;;;14.63;;
12429;SDS011;6279;42.192;24.326;2022-12-10T08:36:41;21.20;;;15.13;;
12429;SDS011;6279;42.192;24.326;2022-12-10T08:39:07;29.20;;;21.20;;
12429;SDS011;6279;42.192;24.326;2022-12-10T08:41:35;28.03;;;21.57;;
12429;SDS011;6279;42.192;24.326;2022-12-10T08:44:01;31.27;;;22.80;;
12429;SDS011;6279;42.192;24.326;2022-12-10T08:46:30;24.70;;;18.63;;
12429;SDS011;6279;42.192;24.326;2022-12-10T08:48:55;23.67;;;17.00;;
12429;SDS011;6279;42.192;24.326;2022-12-10T08:51:20;24.10;;;16.93;;
12429;SDS011;6279;42.192;24.326;2022-12-10T08:53:46;25.87;;;16.83;;
12429;SDS011;6279;42.192;24.326;2022-12-10T08:56:12;21.40;;;16.43;;
12429;SDS011;6279;42.192;24.326;2022-12-10T08:58:38;24.47;;;17.67;;
12429;SDS011;6279;42.192;24.326;2022-12-10T09:01:07;22.70;;;16.83;;
12429;SDS011;6279;42.192;24.326;2022-12-10T09:03:33;20.73;;;16.17;;
12429;SDS011;6279;42.192;24.326;2022-12-10T09:06:03;26.20;;;18.40;;
12429;SDS011;6279;42.192;24.326;2022-12-10T09:08:30;23.07;;;17.47;;
12429;SDS011;6279;42.192;24.326;2022-12-10T09:10:56;21.53;;;16.43;;
12429;SDS011;6279;42.192;24.326;2022-12-10T09:13:21;21.23;;;15.40;;
12429;SDS011;6279;42.192;24.326;2022-12-10T09:15:50;25.33;;;17.70;;
12429;SDS011;6279;42.192;24.326;2022-12-10T09:18:17;27.13;;;19.17;;
12429;SDS011;6279;42.192;24.326;2022-12-10T09:20:43;26.73;;;19.00;;
12429;SDS011;6279;42.192;24.326;2022-12-10T09:23:09;70.50;;;46.43;;
12429;SDS011;6279;42.192;24.326;2022-12-10T09:25:34;29.90;;;21.13;;
12429;SDS011;6279;42.192;24.326;2022-12-10T09:27:59;20.97;;;14.37;;
12429;SDS011;6279;42.192;24.326;2022-12-10T09:30:25;19.73;;;14.60;;
12429;SDS011;6279;42.192;24.326;2022-12-10T09:32:50;19.50;;;13.87;;
12429;SDS011;6279;42.192;24.326;2022-12-10T09:35:15;19.97;;;13.77;;
12429;SDS011;6279;42.192;24.326;2022-12-10T09:37:41;18.83;;;11.80;;
12429;SDS011;6279;42.192;24.326;2022-12-10T09:40:07;14.63;;;11.30;;
12429;SDS011;6279;42.192;24.326;2022-12-10T09:42:51;15.43;;;10.17;;
12429;SDS011;6279;42.192;24.326;2022-12-10T09:45:30;15.50;;;11.70;;
12429;SDS011;6279;42.192;24.326;2022-12-10T09:48:20;15.37;;;10.93;;
12429;SDS011;6279;42.192;24.326;2022-12-10T09:51:09;18.23;;;12.23;;
12429;SDS011;6279;42.192;24.326;2022-12-10T09:53:38;17.63;;;12.87;;
12429;SDS011;6279;42.192;24.326;2022-12-10T09:56:05;21.70;;;14.30;;
12429;SDS011;6279;42.192;24.326;2022-12-10T09:58:39;17.57;;;13.07;;
12429;SDS011;6279;42.192;24.326;2022-12-10T10:01:05;16.30;;;12.87;;
12429;SDS011;6279;42.192;24.326;2022-12-10T10:03:31;19.80;;;15.17;;
12429;SDS011;6279;42.192;24.326;2022-12-10T10:06:01;20.67;;;15.00;;
12429;SDS011;6279;42.192;24.326;2022-12-10T10:08:32;19.43;;;15.10;;
12429;SDS011;6279;42.192;24.326;2022-12-10T10:11:02;19.20;;;14.30;;
12429;SDS011;6279;42.192;24.326;2022-12-10T10:18:41;21.50;;;14.03;;
12429;SDS011;6279;42.192;24.326;2022-12-10T10:21:21;20.87;;;13.17;;
12429;SDS011;6279;42.192;24.326;2022-12-10T10:24:07;16.00;;;8.70;;
12429;SDS011;6279;42.192;24.326;2022-12-10T10:26:43;18.70;;;8.77;;
12429;SDS011;6279;42.192;24.326;2022-12-10T10:29:11;18.07;;;10.77;;
12429;SDS011;6279;42.192;24.326;2022-12-10T10:31:41;19.87;;;9.57;;
12429;SDS011;6279;42.192;24.326;2022-12-10T10:34:16;17.67;;;9.80;;
12429;SDS011;6279;42.192;24.326;2022-12-10T10:36:43;22.33;;;11.53;;
12429;SDS011;6279;42.192;24.326;2022-12-10T10:39:11;18.97;;;11.57;;
12429;SDS011;6279;42.192;24.326;2022-12-10T10:41:44;22.97;;;11.67;;
12429;SDS011;6279;42.192;24.326;2022-12-10T10:44:20;24.43;;;13.00;;
12429;SDS011;6279;42.192;24.326;2022-12-10T10:46:49;21.27;;;12.47;;
12429;SDS011;6279;42.192;24.326;2022-12-10T10:49:21;30.17;;;14.03;;
12429;SDS011;6279;42.192;24.326;2022-12-10T10:51:50;27.67;;;15.53;;
12429;SDS011;6279;42.192;24.326;2022-12-10T10:54:30;22.10;;;13.63;;
12429;SDS011;6279;42.192;24.326;2022-12-10T10:57:03;26.73;;;14.83;;
12429;SDS011;6279;42.192;24.326;2022-12-10T10:59:34;25.50;;;16.97;;
12429;SDS011;6279;42.192;24.326;2022-12-10T11:04:51;38.93;;;21.00;;
12429;SDS011;6279;42.192;24.326;2022-12-10T11:09:51;32.83;;;20.83;;
12429;SDS011;6279;42.192;24.326;2022-12-10T11:12:23;30.53;;;19.60;;
12429;SDS011;6279;42.192;24.326;2022-12-10T11:14:52;30.60;;;17.97;;
12429;SDS011;6279;42.192;24.326;2022-12-10T11:17:19;24.83;;;15.20;;
12429;SDS011;6279;42.192;24.326;2022-12-10T11:24:49;25.60;;;14.93;;
12429;SDS011;6279;42.192;24.326;2022-12-10T11:27:23;21.57;;;12.53;;
12429;SDS011;6279;42.192;24.326;2022-12-10T11:30:02;24.97;;;12.57;;
12429;SDS011;6279;42.192;24.326;2022-12-10T11:35:06;22.47;;;12.37;;
12429;SDS011;6279;42.192;24.326;2022-12-10T11:37:49;25.27;;;12.00;;
12429;SDS011;6279;42.192;24.326;2022-12-10T11:40:46;20.90;;;11.87;;
12429;SDS011;6279;42.192;24.326;2022-12-10T11:43:19;18.40;;;13.57;;
12429;SDS011;6279;42.192;24.326;2022-12-10T11:48:58;26.27;;;13.63;;
12429;SDS011;6279;42.192;24.326;2022-12-10T11:54:51;24.47;;;13.60;;
12429;SDS011;6279;42.192;24.326;2022-12-10T12:00:29;27.77;;;14.73;;
12429;SDS011;6279;42.192;24.326;2022-12-10T12:06:00;34.23;;;17.87;;
12429;SDS011;6279;42.192;24.326;2022-12-10T12:11:46;26.30;;;15.13;;
12429;SDS011;6279;42.192;24.326;2022-12-10T12:17:23;21.90;;;15.00;;
12429;SDS011;6279;42.192;24.326;2022-12-10T12:19:53;27.83;;;15.40;;
12429;SDS011;6279;42.192;24.326;2022-12-10T12:24:46;27.90;;;14.73;;
12429;SDS011;6279;42.192;24.326;2022-12-10T12:29:55;30.20;;;14.43;;
12429;SDS011;6279;42.192;24.326;2022-12-10T12:35:24;28.90;;;15.43;;
12429;SDS011;6279;42.192;24.326;2022-12-10T12:37:59;28.30;;;15.07;;
12429;SDS011;6279;42.192;24.326;2022-12-10T12:40:51;26.53;;;15.53;;
12429;SDS011;6279;42.192;24.326;2022-12-10T12:43:31;29.50;;;15.10;;
12429;SDS011;6279;42.192;24.326;2022-12-10T12:46:08;33.47;;;15.87;;
12429;SDS011;6279;42.192;24.326;2022-12-10T12:48:40;25.03;;;15.40;;
12429;SDS011;6279;42.192;24.326;2022-12-10T12:51:14;24.77;;;14.93;;
12429;SDS011;6279;42.192;24.326;2022-12-10T12:53:44;32.33;;;17.87;;
12429;SDS011;6279;42.192;24.326;2022-12-10T12:59:22;24.40;;;15.13;;
12429;SDS011;6279;42.192;24.326;2022-12-10T13:04:58;34.33;;;16.97;;
12429;SDS011;6279;42.192;24.326;2022-12-10T13:10:07;35.47;;;17.17;;
12429;SDS011;6279;42.192;24.326;2022-12-10T13:12:48;31.97;;;17.53;;
12429;SDS011;6279;42.192;24.326;2022-12-10T13:15:38;35.43;;;20.30;;
12429;SDS011;6279;42.192;24.326;2022-12-10T13:20:49;31.57;;;20.43;;
12429;SDS011;6279;42.192;24.326;2022-12-10T13:23:34;33.37;;;19.63;;
12429;SDS011;6279;42.192;24.326;2022-12-10T13:26:26;32.83;;;19.53;;
12429;SDS011;6279;42.192;24.326;2022-12-10T13:28:54;35.20;;;19.93;;
12429;SDS011;6279;42.192;24.326;2022-12-10T13:34:03;41.47;;;21.80;;
12429;SDS011;6279;42.192;24.326;2022-12-10T13:39:10;42.47;;;22.70;;
12429;SDS011;6279;42.192;24.326;2022-12-10T13:41:39;44.07;;;24.13;;
12429;SDS011;6279;42.192;24.326;2022-12-10T13:50:00;53.80;;;29.83;;
12429;SDS011;6279;42.192;24.326;2022-12-10T13:55:20;46.07;;;26.83;;
12429;SDS011;6279;42.192;24.326;2022-12-10T13:57:52;41.53;;;27.17;;
12429;SDS011;6279;42.192;24.326;2022-12-10T14:06:15;40.53;;;23.30;;
12429;SDS011;6279;42.192;24.326;2022-12-10T14:08:45;43.63;;;25.83;;
12429;SDS011;6279;42.192;24.326;2022-12-10T14:11:32;41.77;;;27.33;;
12429;SDS011;6279;42.192;24.326;2022-12-10T14:14:02;46.90;;;27.53;;
12429;SDS011;6279;42.192;24.326;2022-12-10T14:16:31;44.60;;;28.43;;
12429;SDS011;6279;42.192;24.326;2022-12-10T14:19:04;56.80;;;32.63;;
12429;SDS011;6279;42.192;24.326;2022-12-10T14:21:34;56.93;;;36.07;;
12429;SDS011;6279;42.192;24.326;2022-12-10T14:24:01;59.53;;;34.57;;
12429;SDS011;6279;42.192;24.326;2022-12-10T14:26:28;47.73;;;32.03;;
12429;SDS011;6279;42.192;24.326;2022-12-10T14:28:56;51.30;;;34.40;;
12429;SDS011;6279;42.192;24.326;2022-12-10T14:31:30;51.17;;;33.47;;
12429;SDS011;6279;42.192;24.326;2022-12-10T14:34:02;51.30;;;33.87;;
12429;SDS011;6279;42.192;24.326;2022-12-10T14:36:32;50.43;;;34.10;;
12429;SDS011;6279;42.192;24.326;2022-12-10T14:38:59;62.30;;;34.37;;
12429;SDS011;6279;42.192;24.326;2022-12-10T14:41:26;57.47;;;34.50;;
12429;SDS011;6279;42.192;24.326;2022-12-10T14:43:54;51.30;;;33.77;;
12429;SDS011;6279;42.192;24.326;2022-12-10T14:46:27;44.53;;;28.57;;
12429;SDS011;6279;42.192;24.326;2022-12-10T14:48:54;51.60;;;30.73;;
12429;SDS011;6279;42.192;24.326;2022-12-10T14:51:21;45.53;;;30.37;;
12429;SDS011;6279;42.192;24.326;2022-12-10T14:53:49;53.27;;;33.90;;
12429;SDS011;6279;42.192;24.326;2022-12-10T14:56:20;58.10;;;38.70;;
12429;SDS011;6279;42.192;24.326;2022-12-10T14:59:06;60.97;;;41.87;;
12429;SDS011;6279;42.192;24.326;2022-12-10T15:01:45;57.13;;;39.17;;
12429;SDS011;6279;42.192;24.326;2022-12-10T15:04:18;61.73;;;40.27;;
12429;SDS011;6279;42.192;24.326;2022-12-10T15:06:45;61.50;;;38.83;;
12429;SDS011;6279;42.192;24.326;2022-12-10T15:09:15;60.90;;;38.67;;
12429;SDS011;6279;42.192;24.326;2022-12-10T15:11:45;65.93;;;41.60;;
12429;SDS011;6279;42.192;24.326;2022-12-10T15:14:18;63.93;;;40.03;;
12429;SDS011;6279;42.192;24.326;2022-12-10T15:16:45;60.37;;;44.73;;
12429;SDS011;6279;42.192;24.326;2022-12-10T15:19:19;69.73;;;45.63;;
12429;SDS011;6279;42.192;24.326;2022-12-10T15:24:45;64.03;;;42.13;;
12429;SDS011;6279;42.192;24.326;2022-12-10T15:27:15;70.03;;;41.77;;
12429;SDS011;6279;42.192;24.326;2022-12-10T15:29:51;69.23;;;41.27;;
12429;SDS011;6279;42.192;24.326;2022-12-10T15:32:21;70.27;;;43.17;;
12429;SDS011;6279;42.192;24.326;2022-12-10T15:34:55;65.33;;;42.17;;
12429;SDS011;6279;42.192;24.326;2022-12-10T15:37:33;65.10;;;46.33;;
12429;SDS011;6279;42.192;24.326;2022-12-10T15:40:01;67.40;;;45.10;;
12429;SDS011;6279;42.192;24.326;2022-12-10T15:47:44;101.67;;;68.13;;
12429;SDS011;6279;42.192;24.326;2022-12-10T15:50:09;93.80;;;59.37;;
12429;SDS011;6279;42.192;24.326;2022-12-10T15:52:35;89.37;;;59.17;;
12429;SDS011;6279;42.192;24.326;2022-12-10T15:55:00;91.03;;;58.23;;
12429;SDS011;6279;42.192;24.326;2022-12-10T15:57:30;96.37;;;61.03;;
12429;SDS011;6279;42.192;24.326;2022-12-10T15:59:58;88.07;;;57.37;;
12429;SDS011;6279;42.192;24.326;2022-12-10T16:05:15;130.73;;;70.43;;
12429;SDS011;6279;42.192;24.326;2022-12-10T16:07:44;144.20;;;86.33;;
12429;SDS011;6279;42.192;24.326;2022-12-10T16:10:11;134.30;;;79.57;;
12429;SDS011;6279;42.192;24.326;2022-12-10T16:12:39;133.23;;;80.00;;
12429;SDS011;6279;42.192;24.326;2022-12-10T16:15:06;124.27;;;81.97;;
12429;SDS011;6279;42.192;24.326;2022-12-10T16:17:33;124.57;;;80.93;;